AUA29V EBBR-LOWW
Flight info
| Callsign | AUA29V |
|---|---|
| Flight time | 1h 19m |
| Altitude | 33000 |
| Route | SOPO1X SOPOK Y863 ROPUV L607 EMGOD DCT BOMBI DCT BARSU DCT EKSOS DCT LULAR DCT RUDAP DCT BUDEX BUDEX2W |
| Aircraft | A320/M-SDE3FGHIRWY/LB1 |
Departure
| Time | 2026-05-06 12:23 |
|---|---|
| Airport | Brussels Airport (EBBR) |
Arrival
| Time | 2026-05-06 13:42 |
|---|---|
| Airport | Vienna International Airport (LOWW) |
| Time | Latitude | Longitude | Altitude | Speed | Heading |
|---|---|---|---|---|---|
| 2026-05-06 11:53 | 50.90268 | 4.48517 | 185 ft | 0 kts | 335° |
| 2026-05-06 12:13 | 50.90267 | 4.48518 | 184 ft | 1 kts | 335° |
| 2026-05-06 12:13 | 50.90252 | 4.48529 | 194 ft | 3 kts | 337° |
| 2026-05-06 12:14 | 50.90233 | 4.48541 | 200 ft | 3 kts | 341° |
| 2026-05-06 12:14 | 50.90214 | 4.48550 | 201 ft | 3 kts | 349° |
| 2026-05-06 12:14 | 50.90194 | 4.48553 | 194 ft | 3 kts | 12° |
| 2026-05-06 12:14 | 50.90180 | 4.48545 | 201 ft | 2 kts | 61° |
| 2026-05-06 12:15 | 50.90179 | 4.48541 | 201 ft | 0 kts | 65° |
| 2026-05-06 12:17 | 50.90182 | 4.48552 | 201 ft | 4 kts | 65° |
| 2026-05-06 12:18 | 50.90208 | 4.48642 | 186 ft | 14 kts | 65° |
| 2026-05-06 12:18 | 50.90255 | 4.48807 | 189 ft | 18 kts | 65° |
| 2026-05-06 12:18 | 50.90308 | 4.48990 | 187 ft | 19 kts | 65° |
| 2026-05-06 12:18 | 50.90365 | 4.49187 | 186 ft | 20 kts | 65° |
| 2026-05-06 12:19 | 50.90422 | 4.49381 | 184 ft | 19 kts | 65° |
| 2026-05-06 12:19 | 50.90475 | 4.49565 | 186 ft | 14 kts | 63° |
| 2026-05-06 12:19 | 50.90558 | 4.49636 | 185 ft | 15 kts | 14° |
| 2026-05-06 12:19 | 50.90662 | 4.49677 | 193 ft | 16 kts | 14° |
| 2026-05-06 12:20 | 50.90771 | 4.49722 | 185 ft | 16 kts | 14° |
| 2026-05-06 12:20 | 50.90869 | 4.49762 | 184 ft | 14 kts | 14° |
| 2026-05-06 12:20 | 50.90954 | 4.49824 | 190 ft | 11 kts | 38° |
| 2026-05-06 12:20 | 50.91021 | 4.49901 | 183 ft | 13 kts | 30° |
| 2026-05-06 12:21 | 50.91104 | 4.49949 | 182 ft | 12 kts | 0° |
| 2026-05-06 12:21 | 50.91142 | 4.49886 | 182 ft | 7 kts | 259° |
| 2026-05-06 12:21 | 50.91136 | 4.49864 | 182 ft | 0 kts | 244° |
| 2026-05-06 12:22 | 50.91111 | 4.49778 | 183 ft | 36 kts | 245° |
| 2026-05-06 12:22 | 50.90902 | 4.49052 | 189 ft | 105 kts | 245° |
| 2026-05-06 12:22 | 50.90517 | 4.47724 | 187 ft | 157 kts | 245° |
| 2026-05-06 12:23 | 50.90021 | 4.46021 | 531 ft | 171 kts | 249° |
| 2026-05-06 12:23 | 50.89527 | 4.44301 | 1243 ft | 172 kts | 249° |
| 2026-05-06 12:23 | 50.89027 | 4.42574 | 1929 ft | 173 kts | 244° |
| 2026-05-06 12:23 | 50.88154 | 4.41286 | 2564 ft | 177 kts | 202° |
| 2026-05-06 12:24 | 50.86943 | 4.41102 | 3137 ft | 177 kts | 163° |
| 2026-05-06 12:24 | 50.85866 | 4.41997 | 3602 ft | 181 kts | 129° |
| 2026-05-06 12:24 | 50.85067 | 4.43631 | 3966 ft | 197 kts | 122° |
| 2026-05-06 12:24 | 50.84202 | 4.45445 | 4362 ft | 215 kts | 123° |
| 2026-05-06 12:25 | 50.83239 | 4.47427 | 4632 ft | 241 kts | 124° |
| 2026-05-06 12:25 | 50.82162 | 4.49621 | 5025 ft | 263 kts | 125° |
| 2026-05-06 12:25 | 50.81014 | 4.51948 | 5753 ft | 272 kts | 125° |
| 2026-05-06 12:25 | 50.79835 | 4.54329 | 6561 ft | 277 kts | 126° |
| 2026-05-06 12:26 | 50.78636 | 4.56739 | 7352 ft | 281 kts | 126° |
| 2026-05-06 12:26 | 50.77416 | 4.59190 | 8155 ft | 286 kts | 126° |
| 2026-05-06 12:26 | 50.76183 | 4.61670 | 8970 ft | 289 kts | 127° |
| 2026-05-06 12:26 | 50.74933 | 4.64182 | 9786 ft | 293 kts | 128° |
| 2026-05-06 12:27 | 50.73612 | 4.66701 | 10279 ft | 307 kts | 130° |
| 2026-05-06 12:27 | 50.72156 | 4.69336 | 10498 ft | 330 kts | 131° |
| 2026-05-06 12:27 | 50.70611 | 4.72110 | 10989 ft | 341 kts | 128° |
| 2026-05-06 12:27 | 50.69304 | 4.75250 | 11652 ft | 345 kts | 116° |
| 2026-05-06 12:28 | 50.68422 | 4.78780 | 12354 ft | 348 kts | 105° |
| 2026-05-06 12:28 | 50.67715 | 4.82445 | 13090 ft | 351 kts | 106° |
| 2026-05-06 12:28 | 50.66995 | 4.86153 | 13838 ft | 356 kts | 106° |
| 2026-05-06 12:28 | 50.66261 | 4.89902 | 14554 ft | 360 kts | 107° |
| 2026-05-06 12:29 | 50.65515 | 4.93702 | 15296 ft | 366 kts | 107° |
| 2026-05-06 12:29 | 50.64756 | 4.97557 | 15955 ft | 372 kts | 107° |
| 2026-05-06 12:29 | 50.63983 | 5.01466 | 16572 ft | 375 kts | 107° |
| 2026-05-06 12:29 | 50.63201 | 5.05407 | 17178 ft | 379 kts | 107° |
| 2026-05-06 12:30 | 50.62413 | 5.09383 | 17761 ft | 382 kts | 107° |
| 2026-05-06 12:30 | 50.61616 | 5.13401 | 18320 ft | 386 kts | 107° |
| 2026-05-06 12:30 | 50.60810 | 5.17442 | 18839 ft | 389 kts | 107° |
| 2026-05-06 12:30 | 50.59997 | 5.21513 | 19378 ft | 391 kts | 107° |
| 2026-05-06 12:31 | 50.59177 | 5.25614 | 19927 ft | 393 kts | 108° |
| 2026-05-06 12:31 | 50.58035 | 5.29511 | 20449 ft | 395 kts | 127° |
| 2026-05-06 12:31 | 50.56117 | 5.32593 | 20997 ft | 396 kts | 139° |
| 2026-05-06 12:31 | 50.54045 | 5.35464 | 21539 ft | 398 kts | 139° |
| 2026-05-06 12:32 | 50.51984 | 5.38385 | 22099 ft | 400 kts | 138° |
| 2026-05-06 12:32 | 50.49929 | 5.41357 | 22647 ft | 402 kts | 137° |
| 2026-05-06 12:32 | 50.47879 | 5.44363 | 23170 ft | 404 kts | 137° |
| 2026-05-06 12:32 | 50.45826 | 5.47393 | 23633 ft | 407 kts | 137° |
| 2026-05-06 12:33 | 50.43763 | 5.50445 | 24058 ft | 408 kts | 137° |
| 2026-05-06 12:33 | 50.41695 | 5.53500 | 24482 ft | 409 kts | 137° |
| 2026-05-06 12:33 | 50.39613 | 5.56556 | 24889 ft | 411 kts | 137° |
| 2026-05-06 12:33 | 50.37653 | 5.59823 | 25280 ft | 413 kts | 126° |
| 2026-05-06 12:34 | 50.36318 | 5.63792 | 25655 ft | 415 kts | 109° |
| 2026-05-06 12:34 | 50.35685 | 5.68210 | 26026 ft | 417 kts | 100° |
| 2026-05-06 12:34 | 50.35193 | 5.72686 | 26398 ft | 418 kts | 100° |
| 2026-05-06 12:34 | 50.34704 | 5.77178 | 26768 ft | 420 kts | 100° |
| 2026-05-06 12:35 | 50.34208 | 5.81693 | 27144 ft | 421 kts | 100° |
| 2026-05-06 12:35 | 50.33706 | 5.86217 | 27503 ft | 423 kts | 100° |
| 2026-05-06 12:35 | 50.33197 | 5.90761 | 27862 ft | 425 kts | 100° |
| 2026-05-06 12:35 | 50.32682 | 5.95322 | 28203 ft | 426 kts | 100° |
| 2026-05-06 12:36 | 50.32163 | 5.99899 | 28534 ft | 428 kts | 100° |
| 2026-05-06 12:36 | 50.31632 | 6.04544 | 28872 ft | 429 kts | 100° |
| 2026-05-06 12:36 | 50.31111 | 6.09092 | 29179 ft | 431 kts | 100° |
| 2026-05-06 12:36 | 50.30581 | 6.13710 | 29478 ft | 433 kts | 100° |
| 2026-05-06 12:37 | 50.30051 | 6.18351 | 29789 ft | 434 kts | 100° |
| 2026-05-06 12:37 | 50.29692 | 6.21489 | 29958 ft | 435 kts | 100° |
| 2026-05-06 12:37 | 50.28977 | 6.27682 | 30213 ft | 439 kts | 101° |
| 2026-05-06 12:37 | 50.28431 | 6.32386 | 30379 ft | 441 kts | 101° |
| 2026-05-06 12:38 | 50.27878 | 6.37120 | 30549 ft | 444 kts | 101° |
| 2026-05-06 12:38 | 50.27503 | 6.40329 | 30664 ft | 446 kts | 101° |
| 2026-05-06 12:38 | 50.26942 | 6.45115 | 30830 ft | 449 kts | 102° |
| 2026-05-06 12:38 | 50.26375 | 6.49924 | 31048 ft | 450 kts | 102° |
| 2026-05-06 12:39 | 50.25806 | 6.54733 | 31308 ft | 450 kts | 102° |
| 2026-05-06 12:39 | 50.25234 | 6.59546 | 31578 ft | 450 kts | 102° |
| 2026-05-06 12:39 | 50.24660 | 6.64352 | 31843 ft | 451 kts | 102° |
| 2026-05-06 12:39 | 50.24085 | 6.69171 | 32107 ft | 451 kts | 102° |
| 2026-05-06 12:40 | 50.23507 | 6.73987 | 32375 ft | 451 kts | 103° |
| 2026-05-06 12:40 | 50.22927 | 6.78805 | 32643 ft | 451 kts | 103° |
| 2026-05-06 12:40 | 50.22348 | 6.83621 | 32784 ft | 450 kts | 102° |
| 2026-05-06 12:40 | 50.22008 | 6.88446 | 32810 ft | 444 kts | 97° |
| 2026-05-06 12:41 | 50.21528 | 6.98016 | 32811 ft | 441 kts | 97° |
| 2026-05-06 12:41 | 50.21025 | 7.07568 | 32810 ft | 442 kts | 97° |
| 2026-05-06 12:42 | 50.20505 | 7.17121 | 32809 ft | 442 kts | 97° |
| 2026-05-06 12:42 | 50.19980 | 7.26694 | 32806 ft | 443 kts | 97° |
| 2026-05-06 12:43 | 50.19412 | 7.36262 | 32795 ft | 442 kts | 99° |
| 2026-05-06 12:43 | 50.18591 | 7.45759 | 32787 ft | 442 kts | 102° |
| 2026-05-06 12:44 | 50.17664 | 7.55236 | 32781 ft | 442 kts | 102° |
| 2026-05-06 12:44 | 50.16765 | 7.64718 | 32771 ft | 442 kts | 102° |
| 2026-05-06 12:45 | 50.15894 | 7.74229 | 32770 ft | 443 kts | 101° |
| 2026-05-06 12:46 | 50.14586 | 7.88513 | 32767 ft | 444 kts | 102° |
| 2026-05-06 12:46 | 50.13697 | 7.98034 | 32768 ft | 444 kts | 102° |
| 2026-05-06 12:47 | 50.12794 | 8.07565 | 32774 ft | 444 kts | 102° |
| 2026-05-06 12:47 | 50.11888 | 8.17080 | 32777 ft | 444 kts | 102° |
| 2026-05-06 12:48 | 50.10975 | 8.26603 | 32779 ft | 444 kts | 102° |
| 2026-05-06 12:48 | 50.10049 | 8.36109 | 32778 ft | 444 kts | 103° |
| 2026-05-06 12:49 | 50.09117 | 8.45606 | 32776 ft | 444 kts | 103° |
| 2026-05-06 12:49 | 50.08178 | 8.55097 | 32766 ft | 443 kts | 103° |
| 2026-05-06 12:50 | 50.07232 | 8.64585 | 32763 ft | 443 kts | 103° |
| 2026-05-06 12:50 | 50.06273 | 8.74059 | 32760 ft | 443 kts | 103° |
| 2026-05-06 12:51 | 50.05320 | 8.83598 | 32760 ft | 444 kts | 102° |
| 2026-05-06 12:51 | 50.04563 | 8.93071 | 32755 ft | 444 kts | 101° |
| 2026-05-06 12:52 | 50.03871 | 9.02619 | 32753 ft | 444 kts | 101° |
| 2026-05-06 12:52 | 50.03132 | 9.12235 | 32750 ft | 444 kts | 102° |
| 2026-05-06 12:53 | 50.02363 | 9.21695 | 32747 ft | 444 kts | 102° |
| 2026-05-06 12:53 | 50.01568 | 9.31219 | 32746 ft | 444 kts | 102° |
| 2026-05-06 12:54 | 50.00766 | 9.40812 | 32744 ft | 444 kts | 102° |
| 2026-05-06 12:54 | 49.99973 | 9.50341 | 32747 ft | 445 kts | 102° |
| 2026-05-06 12:55 | 49.99166 | 9.59871 | 32747 ft | 445 kts | 102° |
| 2026-05-06 12:55 | 49.98354 | 9.69410 | 32743 ft | 445 kts | 102° |
| 2026-05-06 12:56 | 49.97532 | 9.78943 | 32742 ft | 446 kts | 103° |
| 2026-05-06 12:56 | 49.96696 | 9.88506 | 32761 ft | 446 kts | 103° |
| 2026-05-06 12:57 | 49.95859 | 9.98066 | 32755 ft | 447 kts | 103° |
| 2026-05-06 12:57 | 49.95008 | 10.07629 | 32753 ft | 448 kts | 103° |
| 2026-05-06 12:58 | 49.94147 | 10.17204 | 32747 ft | 448 kts | 104° |
| 2026-05-06 12:58 | 49.93281 | 10.26807 | 32757 ft | 449 kts | 104° |
| 2026-05-06 12:59 | 49.92385 | 10.36400 | 32756 ft | 448 kts | 107° |
| 2026-05-06 12:59 | 49.90498 | 10.45447 | 32765 ft | 438 kts | 118° |
| 2026-05-06 13:00 | 49.88222 | 10.54224 | 32758 ft | 439 kts | 118° |
| 2026-05-06 13:00 | 49.85947 | 10.63016 | 32761 ft | 440 kts | 118° |
| 2026-05-06 13:01 | 49.83667 | 10.71806 | 32762 ft | 440 kts | 119° |
| 2026-05-06 13:01 | 49.81367 | 10.80601 | 32770 ft | 441 kts | 119° |
| 2026-05-06 13:02 | 49.79060 | 10.89384 | 32766 ft | 441 kts | 119° |
| 2026-05-06 13:02 | 49.76745 | 10.98187 | 32762 ft | 441 kts | 119° |
| 2026-05-06 13:03 | 49.74486 | 11.07025 | 32760 ft | 444 kts | 117° |
| 2026-05-06 13:03 | 49.72447 | 11.16059 | 32760 ft | 446 kts | 115° |
| 2026-05-06 13:04 | 49.70465 | 11.25139 | 32764 ft | 446 kts | 115° |
| 2026-05-06 13:04 | 49.68432 | 11.34200 | 32763 ft | 446 kts | 116° |
| 2026-05-06 13:05 | 49.66340 | 11.43231 | 32768 ft | 447 kts | 116° |
| 2026-05-06 13:05 | 49.64238 | 11.52258 | 32766 ft | 448 kts | 116° |
| 2026-05-06 13:06 | 49.62133 | 11.61305 | 32762 ft | 448 kts | 116° |
| 2026-05-06 13:06 | 49.60029 | 11.70358 | 32758 ft | 448 kts | 116° |
| 2026-05-06 13:07 | 49.57926 | 11.79410 | 32754 ft | 449 kts | 116° |
| 2026-05-06 13:07 | 49.55807 | 11.88459 | 32756 ft | 449 kts | 116° |
| 2026-05-06 13:08 | 49.53678 | 11.97496 | 32753 ft | 449 kts | 117° |
| 2026-05-06 13:08 | 49.51536 | 12.06534 | 32753 ft | 450 kts | 117° |
| 2026-05-06 13:09 | 49.49394 | 12.15577 | 32759 ft | 450 kts | 117° |
| 2026-05-06 13:09 | 49.47234 | 12.24611 | 32767 ft | 450 kts | 117° |
| 2026-05-06 13:10 | 49.45065 | 12.33646 | 32768 ft | 450 kts | 117° |
| 2026-05-06 13:10 | 49.42894 | 12.42662 | 32767 ft | 450 kts | 117° |
| 2026-05-06 13:11 | 49.40717 | 12.51689 | 32765 ft | 451 kts | 117° |
| 2026-05-06 13:11 | 49.38527 | 12.60715 | 32766 ft | 451 kts | 117° |
| 2026-05-06 13:12 | 49.36320 | 12.69735 | 32760 ft | 452 kts | 117° |
| 2026-05-06 13:12 | 49.34113 | 12.78757 | 32761 ft | 452 kts | 117° |
| 2026-05-06 13:13 | 49.31900 | 12.87799 | 32758 ft | 453 kts | 117° |
| 2026-05-06 13:13 | 49.29673 | 12.96834 | 32758 ft | 454 kts | 118° |
| 2026-05-06 13:14 | 49.27435 | 13.05889 | 32755 ft | 454 kts | 118° |
| 2026-05-06 13:14 | 49.25191 | 13.14918 | 32752 ft | 454 kts | 118° |
| 2026-05-06 13:15 | 49.23298 | 13.22489 | 32752 ft | 454 kts | 118° |
| 2026-05-06 13:15 | 49.21029 | 13.31520 | 32758 ft | 455 kts | 118° |
| 2026-05-06 13:16 | 49.18758 | 13.40561 | 32759 ft | 456 kts | 118° |
| 2026-05-06 13:16 | 49.16480 | 13.49604 | 32756 ft | 456 kts | 118° |
| 2026-05-06 13:17 | 49.14195 | 13.58641 | 32755 ft | 456 kts | 118° |
| 2026-05-06 13:17 | 49.11901 | 13.67656 | 32766 ft | 456 kts | 118° |
| 2026-05-06 13:18 | 49.09592 | 13.76658 | 32755 ft | 455 kts | 118° |
| 2026-05-06 13:18 | 49.07291 | 13.85636 | 32475 ft | 451 kts | 118° |
| 2026-05-06 13:18 | 49.06150 | 13.90083 | 32198 ft | 448 kts | 118° |
| 2026-05-06 13:19 | 49.05015 | 13.94491 | 31929 ft | 446 kts | 118° |
| 2026-05-06 13:19 | 49.03882 | 13.98875 | 31665 ft | 444 kts | 118° |
| 2026-05-06 13:19 | 49.02750 | 14.03240 | 31410 ft | 442 kts | 118° |
| 2026-05-06 13:19 | 49.01622 | 14.07583 | 31143 ft | 440 kts | 119° |
| 2026-05-06 13:20 | 49.00499 | 14.11906 | 30884 ft | 438 kts | 118° |
| 2026-05-06 13:20 | 48.99384 | 14.16204 | 30636 ft | 436 kts | 118° |
| 2026-05-06 13:20 | 48.98273 | 14.20488 | 30383 ft | 433 kts | 118° |
| 2026-05-06 13:20 | 48.97167 | 14.24730 | 30137 ft | 431 kts | 118° |
| 2026-05-06 13:21 | 48.96059 | 14.28959 | 29887 ft | 428 kts | 118° |
| 2026-05-06 13:21 | 48.94845 | 14.33045 | 29612 ft | 420 kts | 127° |
| 2026-05-06 13:21 | 48.93281 | 14.36720 | 29323 ft | 409 kts | 135° |
| 2026-05-06 13:21 | 48.91546 | 14.40135 | 29038 ft | 407 kts | 135° |
| 2026-05-06 13:22 | 48.89824 | 14.43533 | 28753 ft | 405 kts | 135° |
| 2026-05-06 13:22 | 48.88113 | 14.46918 | 28473 ft | 403 kts | 135° |
| 2026-05-06 13:22 | 48.86414 | 14.50287 | 28182 ft | 398 kts | 135° |
| 2026-05-06 13:22 | 48.84739 | 14.53605 | 27739 ft | 394 kts | 135° |
| 2026-05-06 13:23 | 48.83078 | 14.56891 | 27312 ft | 390 kts | 135° |
| 2026-05-06 13:23 | 48.81435 | 14.60136 | 26889 ft | 387 kts | 135° |
| 2026-05-06 13:23 | 48.79800 | 14.63354 | 26471 ft | 383 kts | 135° |
| 2026-05-06 13:23 | 48.78178 | 14.66541 | 26051 ft | 379 kts | 135° |
| 2026-05-06 13:24 | 48.76575 | 14.69691 | 25648 ft | 376 kts | 135° |
| 2026-05-06 13:24 | 48.74983 | 14.72815 | 25229 ft | 373 kts | 135° |
| 2026-05-06 13:24 | 48.73404 | 14.75909 | 24813 ft | 370 kts | 135° |
| 2026-05-06 13:24 | 48.71830 | 14.78987 | 24342 ft | 369 kts | 135° |
| 2026-05-06 13:25 | 48.70261 | 14.82047 | 23913 ft | 367 kts | 135° |
| 2026-05-06 13:25 | 48.68698 | 14.85089 | 23456 ft | 366 kts | 135° |
| 2026-05-06 13:25 | 48.67136 | 14.88125 | 22942 ft | 365 kts | 135° |
| 2026-05-06 13:25 | 48.65583 | 14.91145 | 22476 ft | 362 kts | 135° |
| 2026-05-06 13:26 | 48.64040 | 14.94143 | 22022 ft | 360 kts | 134° |
| 2026-05-06 13:26 | 48.62505 | 14.97122 | 21562 ft | 358 kts | 134° |
| 2026-05-06 13:26 | 48.60979 | 15.00082 | 21109 ft | 357 kts | 134° |
| 2026-05-06 13:26 | 48.59662 | 15.03305 | 20584 ft | 366 kts | 121° |
| 2026-05-06 13:27 | 48.58592 | 15.06790 | 20130 ft | 365 kts | 121° |
| 2026-05-06 13:27 | 48.57528 | 15.10266 | 19670 ft | 364 kts | 120° |
| 2026-05-06 13:27 | 48.56470 | 15.13733 | 19219 ft | 363 kts | 120° |
| 2026-05-06 13:27 | 48.55413 | 15.17192 | 18765 ft | 363 kts | 120° |
| 2026-05-06 13:28 | 48.54356 | 15.20647 | 18318 ft | 362 kts | 120° |
| 2026-05-06 13:28 | 48.53298 | 15.24094 | 17842 ft | 362 kts | 120° |
| 2026-05-06 13:28 | 48.52243 | 15.27527 | 17395 ft | 360 kts | 120° |
| 2026-05-06 13:28 | 48.51193 | 15.30945 | 16950 ft | 358 kts | 120° |
| 2026-05-06 13:29 | 48.50150 | 15.34335 | 16514 ft | 356 kts | 120° |
| 2026-05-06 13:29 | 48.49109 | 15.37710 | 16087 ft | 354 kts | 119° |
| 2026-05-06 13:29 | 48.48071 | 15.41065 | 15662 ft | 352 kts | 119° |
| 2026-05-06 13:29 | 48.47037 | 15.44394 | 15242 ft | 350 kts | 119° |
| 2026-05-06 13:30 | 48.46004 | 15.47709 | 14815 ft | 348 kts | 119° |
| 2026-05-06 13:30 | 48.44975 | 15.51010 | 14394 ft | 347 kts | 119° |
| 2026-05-06 13:30 | 48.43952 | 15.54297 | 13980 ft | 346 kts | 119° |
| 2026-05-06 13:30 | 48.42936 | 15.57566 | 13551 ft | 344 kts | 119° |
| 2026-05-06 13:31 | 48.41924 | 15.60817 | 13127 ft | 341 kts | 119° |
| 2026-05-06 13:31 | 48.40916 | 15.64044 | 12681 ft | 340 kts | 119° |
| 2026-05-06 13:31 | 48.39911 | 15.67257 | 12256 ft | 338 kts | 118° |
| 2026-05-06 13:31 | 48.38913 | 15.70438 | 11842 ft | 335 kts | 118° |
| 2026-05-06 13:32 | 48.37922 | 15.73593 | 11417 ft | 332 kts | 118° |
| 2026-05-06 13:32 | 48.36937 | 15.76725 | 10998 ft | 330 kts | 118° |
| 2026-05-06 13:32 | 48.35958 | 15.79836 | 10567 ft | 328 kts | 118° |
| 2026-05-06 13:32 | 48.34985 | 15.82935 | 10143 ft | 327 kts | 118° |
| 2026-05-06 13:33 | 48.34014 | 15.86017 | 9819 ft | 323 kts | 119° |
| 2026-05-06 13:33 | 48.33072 | 15.89001 | 9766 ft | 309 kts | 119° |
| 2026-05-06 13:33 | 48.32171 | 15.91857 | 9630 ft | 299 kts | 119° |
| 2026-05-06 13:33 | 48.31289 | 15.94647 | 9235 ft | 292 kts | 119° |
| 2026-05-06 13:34 | 48.30425 | 15.97379 | 8845 ft | 286 kts | 119° |
| 2026-05-06 13:34 | 48.29577 | 16.00042 | 8443 ft | 279 kts | 119° |
| 2026-05-06 13:34 | 48.28739 | 16.02644 | 8032 ft | 275 kts | 120° |
| 2026-05-06 13:34 | 48.27912 | 16.05205 | 7634 ft | 271 kts | 120° |
| 2026-05-06 13:35 | 48.27099 | 16.07724 | 7238 ft | 265 kts | 120° |
| 2026-05-06 13:35 | 48.26302 | 16.10186 | 6859 ft | 259 kts | 120° |
| 2026-05-06 13:35 | 48.25512 | 16.12584 | 6462 ft | 254 kts | 121° |
| 2026-05-06 13:35 | 48.24732 | 16.14939 | 6061 ft | 248 kts | 121° |
| 2026-05-06 13:36 | 48.23979 | 16.17214 | 5666 ft | 240 kts | 120° |
| 2026-05-06 13:36 | 48.23254 | 16.19395 | 5454 ft | 227 kts | 121° |
| 2026-05-06 13:36 | 48.22557 | 16.21516 | 5236 ft | 226 kts | 121° |
| 2026-05-06 13:36 | 48.21874 | 16.23632 | 4953 ft | 225 kts | 121° |
| 2026-05-06 13:37 | 48.21190 | 16.25760 | 4650 ft | 227 kts | 121° |
| 2026-05-06 13:37 | 48.20508 | 16.27883 | 4326 ft | 225 kts | 121° |
| 2026-05-06 13:37 | 48.19841 | 16.29961 | 4033 ft | 217 kts | 122° |
| 2026-05-06 13:37 | 48.19198 | 16.31960 | 3747 ft | 209 kts | 121° |
| 2026-05-06 13:38 | 48.18580 | 16.33879 | 3463 ft | 201 kts | 122° |
| 2026-05-06 13:38 | 48.17990 | 16.35710 | 3232 ft | 189 kts | 122° |
| 2026-05-06 13:38 | 48.17431 | 16.37440 | 2961 ft | 181 kts | 123° |
| 2026-05-06 13:38 | 48.16895 | 16.39101 | 2704 ft | 170 kts | 124° |
| 2026-05-06 13:39 | 48.16404 | 16.40625 | 2486 ft | 156 kts | 124° |
| 2026-05-06 13:39 | 48.15946 | 16.42038 | 2318 ft | 147 kts | 123° |
| 2026-05-06 13:39 | 48.15507 | 16.43393 | 2093 ft | 141 kts | 123° |
| 2026-05-06 13:39 | 48.15080 | 16.44709 | 1891 ft | 140 kts | 124° |
| 2026-05-06 13:40 | 48.14654 | 16.46018 | 1724 ft | 140 kts | 124° |
| 2026-05-06 13:40 | 48.14234 | 16.47323 | 1512 ft | 138 kts | 124° |
| 2026-05-06 13:40 | 48.13809 | 16.48618 | 1299 ft | 138 kts | 123° |
| 2026-05-06 13:40 | 48.13393 | 16.49900 | 1110 ft | 137 kts | 122° |
| 2026-05-06 13:41 | 48.12979 | 16.51180 | 947 ft | 136 kts | 121° |
| 2026-05-06 13:41 | 48.12570 | 16.52439 | 763 ft | 134 kts | 122° |
| 2026-05-06 13:41 | 48.12168 | 16.53683 | 617 ft | 130 kts | 122° |
| 2026-05-06 13:41 | 48.11838 | 16.54697 | 613 ft | 83 kts | 115° |
| 2026-05-06 13:42 | 48.11650 | 16.55274 | 613 ft | 54 kts | 116° |
| 2026-05-06 13:42 | 48.11523 | 16.55687 | 613 ft | 27 kts | 107° |
| 2026-05-06 13:42 | 48.11498 | 16.55926 | 608 ft | 19 kts | 89° |
| 2026-05-06 13:42 | 48.11506 | 16.56074 | 608 ft | 14 kts | 81° |
| 2026-05-06 13:43 | 48.11573 | 16.56162 | 613 ft | 13 kts | 26° |
| 2026-05-06 13:43 | 48.11643 | 16.56227 | 614 ft | 11 kts | 36° |
| 2026-05-06 13:43 | 48.11707 | 16.56280 | 612 ft | 10 kts | 26° |
| 2026-05-06 13:43 | 48.11756 | 16.56333 | 613 ft | 8 kts | 68° |
| 2026-05-06 13:44 | 48.11741 | 16.56421 | 614 ft | 12 kts | 115° |
| 2026-05-06 13:44 | 48.11699 | 16.56549 | 614 ft | 15 kts | 116° |
| 2026-05-06 13:44 | 48.11653 | 16.56691 | 615 ft | 16 kts | 115° |
| 2026-05-06 13:44 | 48.11613 | 16.56814 | 618 ft | 9 kts | 116° |
| 2026-05-06 13:45 | 48.11593 | 16.56897 | 608 ft | 8 kts | 82° |
| 2026-05-06 13:45 | 48.11656 | 16.56954 | 615 ft | 1 kts | 25° |